• Join FlightAware (Why Join?)
  • Login
  • US Flag 
03:11AM EDT


 

Airport Tracker/Info


-or-


 

Live Flight TrackerFlight Track Log ✈ FSR411 ✈ 23-Oct-2013 ✈ KUZA - KDET

Flight Track Log - Related Links

Times and Time Zones

All times are in EDT time to prevent confusion due to time zone crossing. See the FSR411 flight status page for this flight to view local times or setup timezone preferences in your user account.

Time Position Orientation Groundspeed Altitude Reporting Facility
EDT Latitude Longitude Course Direction KTS MPH feet Rate Location/Type
03:25PM 35.0061 -81.0542 328° Northwest 163 188 1,300  Level Atlanta Center
03:25PM 35.0250 -81.0686 328° Northwest 181 208 2,300 1,080 Climbing Atlanta Center
03:26PM 35.0269 -81.1422 272° West 236 272 3,000 1,440 Climbing Atlanta Center
03:28PM 35.1217 -81.1872 339° North 253 291 6,100 2,520 Climbing Atlanta Center
03:29PM 35.1969 -81.1844 North 258 297 9,600 3,300 Climbing Atlanta Center
03:30PM 35.2781 -81.1742 North 277 319 12,700 2,520 Climbing Atlanta Center
03:31PM 35.3725 -81.1072 30° Northeast 332 382 14,700 2,520 Climbing Atlanta Center
03:32PM 35.4756 -81.0628 19° North 373 429 17,800 3,120 Climbing Atlanta Center
03:33PM 35.5786 -81.0947 346° North 367 422 21,000 3,060 Climbing Atlanta Center
03:34PM 35.6858 -81.1267 346° North 374 430 24,000 2,640 Climbing Atlanta Center
03:35PM 35.7908 -81.1586 346° North 380 437 26,300 2,100 Climbing Atlanta Center
03:36PM 35.9000 -81.1908 347° North 389 448 28,300 1,980 Climbing Atlanta Center
03:37PM 36.0133 -81.2200 348° North 404 465 30,300 1,920 Climbing Atlanta Center
03:38PM 36.1267 -81.2547 346° North 409 471 32,200 1,320 Climbing Atlanta Center
03:39PM 36.2444 -81.2867 348° North 415 478 33,000 480 Climbing Atlanta Center
03:40PM 36.3661 -81.3211 347° North 427 491 33,200 540 Climbing Atlanta Center
03:41PM 36.4878 -81.3558 347° North 449 517 34,100 1,200 Climbing Atlanta Center
03:42PM 36.6136 -81.3903 348° North 456 525 35,600 1,260 Climbing Atlanta Center
03:43PM 36.7353 -81.4278 346° North 451 519 36,700 900 Climbing Atlanta Center
03:45PM 36.9800 -81.4989 347° North 451 519 38,600 900 Climbing Indianapolis Center
03:46PM 37.1108 -81.5358 347° North 442 509 39,700 660 Climbing Indianapolis Center
03:47PM 37.2297 -81.5694 347° North 439 505 40,000 120 Climbing Indianapolis Center
03:48PM 37.3803 -81.5875 355° North 464 534 40,000  Level Indianapolis Center
03:49PM 37.5119 -81.6061 354° North 475 547 40,000  Level Indianapolis Center
03:50PM 37.6450 -81.6250 354° North 481 554 40,000  Level Indianapolis Center
03:51PM 37.7786 -81.6436 354° North 483 556 40,000  Level Indianapolis Center
03:52PM 37.9097 -81.6611 354° North 482 555 40,000  Level Indianapolis Center
03:53PM 38.0444 -81.6797 354° North 485 558 40,000  Level Indianapolis Center
03:54PM 38.2061 -81.7014 354° North 483 556 40,000  Level Indianapolis Center
03:55PM 38.3389 -81.7206 354° North 478 550 40,000  Level Indianapolis Center
03:56PM 38.4703 -81.7403 353° North 473 544 40,000  Level Indianapolis Center
03:57PM 38.6014 -81.7586 354° North 466 536 40,000  Level Indianapolis Center
03:58PM 38.7325 -81.7747 355° North 460 529 40,000  Level Indianapolis Center
04:00PM 38.9539 -81.8042 354° North 455 524 40,000  Level Cleveland Center
04:01PM 39.1061 -81.8272 353° North 460 529 40,000  Level Cleveland Center
04:02PM 39.2342 -81.8453 354° North 463 533 40,000 -540 Level Cleveland Center
04:04PM 39.3744 -81.8675 353° North 460 529 38,800 -1,380 Descending Indianapolis Center
04:05PM 39.5208 -81.8889 354° North 439 505 37,000 -1,560 Descending Indianapolis Center
04:06PM 39.6500 -81.9081 353° North 462 532 35,600 -1,200 Descending Indianapolis Center
04:07PM 39.7844 -81.9272 354° North 462 532 34,600 -1,020 Descending Indianapolis Center
04:08PM 39.9122 -81.9447 354° North 463 533 33,600 -1,020 Descending Indianapolis Center
04:09PM 40.0386 -81.9642 353° North 460 529 32,600 -960 Descending Indianapolis Center
04:10PM 40.1647 -81.9822 354° North 458 527 31,700 -1,020 Descending Indianapolis Center
04:11PM 40.3061 -82.0044 353° North 453 521 30,600 -840 Descending Indianapolis Center
04:12PM 40.4325 -82.0211 354° North 451 519 30,000 -300 Descending Indianapolis Center
04:13PM 40.5608 -82.0389 354° North 456 525 30,000  Level Indianapolis Center
04:14PM 40.6883 -82.0611 352° North 458 527 30,000 -60 Level Indianapolis Center
04:15PM 40.7897 -82.0856 350° North 446 513 29,900 -1,020 Descending Cleveland Center
04:16PM 40.9017 -82.1439 339° North 430 495 28,100 -1,980 Descending Cleveland Center
04:17PM 41.0256 -82.2067 339° North 436 502 25,900 -1,980 Descending Cleveland Center
04:18PM 41.1325 -82.2589 340° North 435 501 24,100 -1,860 Descending Cleveland Center
04:19PM 41.2428 -82.3147 339° North 421 484 22,100 -2,280 Descending Cleveland Center
04:20PM 41.3667 -82.3778 339° North 403 464 19,500 -2,460 Descending Cleveland Center
04:21PM 41.4672 -82.4294 339° North 387 445 17,100 -2,280 Descending Cleveland Center
04:22PM 41.5642 -82.4792 339° North 371 427 14,800 -2,220 Descending Cleveland Center
04:22PM 41.5967 -82.4950 340° North 361 415 14,100 -2,040 Descending Cleveland Center
04:23PM 41.6506 -82.5217 340° North 358 412 12,700 -2,400 Descending Cleveland Center
04:24PM 41.7036 -82.5506 338° Northwest 352 405 11,400 -1,980 Descending Cleveland Center
04:24PM 41.7408 -82.5692 340° North 350 403 10,700 -1,320 Descending Cleveland Center
04:25PM 41.7944 -82.5983 338° Northwest 311 358 10,100 -720 Descending Cleveland Center
04:25PM 41.8419 -82.6214 340° North 328 377 10,000 -120 Descending Cleveland Center
04:26PM 41.8842 -82.6322 349° North 344 396 10,000  Level Cleveland Center
04:26PM 41.9264 -82.6550 338° Northwest 322 371 10,000 -540 Level Cleveland Center
04:27PM 41.9542 -82.6778 329° Northwest 251 289 9,500 -1,500 Descending Cleveland Center
04:27PM 41.9894 -82.6981 337° Northwest 270 311 8,500 -1,680 Descending Cleveland Center
04:28PM 42.0206 -82.7144 339° North 254 292 7,800 -1,500 Descending Cleveland Center
04:28PM 42.0522 -82.7314 338° Northwest 248 285 7,000 -1,680 Descending Cleveland Center
04:29PM 42.0831 -82.7481 338° Northwest 222 255 6,100 -1,800 Descending Cleveland Center
04:29PM 42.1097 -82.7642 336° Northwest 232 267 5,200 -1,680 Descending Cleveland Center
04:30PM 42.1414 -82.7808 339° North 228 262 4,400 -1,200 Descending Cleveland Center
04:30PM 42.1786 -82.7994 340° North 224 258 4,000 -540 Descending Cleveland Center
04:31PM 42.1936 -82.8103 332° Northwest 179 206 3,900 -720 Descending Cleveland Center
04:31PM 42.2222 -82.8239 341° North 183 211 3,300 -900 Descending Cleveland Center
04:32PM 42.2361 -82.8328 335° Northwest 150 173 3,000 -300 Descending Cleveland Center
04:32PM 42.2558 -82.8536 322° Northwest 154 177 3,000  Level Cleveland Center
04:33PM 42.2708 -82.8714 319° Northwest 140 161 3,000  Level Cleveland Center
04:33PM 42.2872 -82.8867 325° Northwest 146 168 3,000  Level Cleveland Center
04:34PM 42.3061 -82.9042 326° Northwest 163 188 3,000 -240 Level Cleveland Center
04:34PM 42.3203 -82.9197 321° Northwest 149 171 2,800 -540 Descending Cleveland Center
04:35PM 42.3333 -82.9333 322° Northwest 116 133 2,500 -600 Descending Cleveland Center
04:36PM 42.3461 -82.9464 323° Northwest 134 154 2,200 -660 Descending Cleveland Center
04:36PM 42.3567 -82.9564 325° Northwest 116 133 1,900 -780 Descending Cleveland Center
04:37PM 42.3769 -82.9756 325° Northwest 121 139 1,400 -720 Descending Cleveland Center
04:37PM 42.3861 -82.9856 321° Northwest 114 131 1,200 -600 Descending Cleveland Center
04:38PM 42.4047 -83.0058 321° Northwest 118 136 800 -540 Descending Cleveland Center